sensor_id;sensor_type;location;lat;lon;timestamp;temperature;humidity
85456;DHT22;75846;43.732;10.404;2024-02-04T00:01:22;9.80;99.90
85456;DHT22;75846;43.732;10.404;2024-02-04T00:03:50;9.80;99.90
85456;DHT22;75846;43.732;10.404;2024-02-04T00:06:17;9.80;99.90
85456;DHT22;75846;43.732;10.404;2024-02-04T00:08:44;9.90;99.90
85456;DHT22;75846;43.732;10.404;2024-02-04T00:11:13;9.80;99.90
85456;DHT22;75846;43.732;10.404;2024-02-04T00:13:41;9.80;99.90
85456;DHT22;75846;43.732;10.404;2024-02-04T00:16:08;9.80;99.90
85456;DHT22;75846;43.732;10.404;2024-02-04T00:18:36;9.90;99.90
85456;DHT22;75846;43.732;10.404;2024-02-04T00:21:03;9.90;99.90
85456;DHT22;75846;43.732;10.404;2024-02-04T00:23:31;9.80;99.90
85456;DHT22;75846;43.732;10.404;2024-02-04T00:25:58;9.90;99.90
85456;DHT22;75846;43.732;10.404;2024-02-04T00:28:27;9.90;99.90
85456;DHT22;75846;43.732;10.404;2024-02-04T00:30:54;9.90;99.90
85456;DHT22;75846;43.732;10.404;2024-02-04T00:33:24;9.90;99.90
85456;DHT22;75846;43.732;10.404;2024-02-04T00:35:51;9.90;99.90
85456;DHT22;75846;43.732;10.404;2024-02-04T00:38:20;9.90;99.90
85456;DHT22;75846;43.732;10.404;2024-02-04T00:40:48;9.90;99.90
85456;DHT22;75846;43.732;10.404;2024-02-04T00:43:15;9.90;99.90
85456;DHT22;75846;43.732;10.404;2024-02-04T00:45:44;9.90;99.90
85456;DHT22;75846;43.732;10.404;2024-02-04T00:48:11;9.80;99.90
85456;DHT22;75846;43.732;10.404;2024-02-04T00:50:38;9.80;99.90
85456;DHT22;75846;43.732;10.404;2024-02-04T00:53:06;9.90;99.90
85456;DHT22;75846;43.732;10.404;2024-02-04T00:55:33;9.90;99.90
85456;DHT22;75846;43.732;10.404;2024-02-04T00:58:00;9.90;99.90
85456;DHT22;75846;43.732;10.404;2024-02-04T01:00:28;9.90;99.90
85456;DHT22;75846;43.732;10.404;2024-02-04T01:02:57;10.00;99.90
85456;DHT22;75846;43.732;10.404;2024-02-04T01:05:24;10.00;99.90
85456;DHT22;75846;43.732;10.404;2024-02-04T01:07:51;10.00;99.90
85456;DHT22;75846;43.732;10.404;2024-02-04T01:10:19;10.00;99.90
85456;DHT22;75846;43.732;10.404;2024-02-04T01:12:46;10.00;99.90
85456;DHT22;75846;43.732;10.404;2024-02-04T01:15:13;10.10;99.90
85456;DHT22;75846;43.732;10.404;2024-02-04T01:17:41;10.00;99.90
85456;DHT22;75846;43.732;10.404;2024-02-04T01:20:11;10.10;99.90
85456;DHT22;75846;43.732;10.404;2024-02-04T01:22:38;10.10;99.90
85456;DHT22;75846;43.732;10.404;2024-02-04T01:25:07;10.10;99.90
85456;DHT22;75846;43.732;10.404;2024-02-04T01:27:34;10.20;99.90
85456;DHT22;75846;43.732;10.404;2024-02-04T01:30:01;10.20;99.90
85456;DHT22;75846;43.732;10.404;2024-02-04T01:32:29;10.20;99.90
85456;DHT22;75846;43.732;10.404;2024-02-04T01:34:56;10.30;99.90
85456;DHT22;75846;43.732;10.404;2024-02-04T01:37:25;10.20;99.90
85456;DHT22;75846;43.732;10.404;2024-02-04T01:39:52;10.20;99.90
85456;DHT22;75846;43.732;10.404;2024-02-04T01:42:20;10.30;99.90
85456;DHT22;75846;43.732;10.404;2024-02-04T01:44:48;10.30;99.90
85456;DHT22;75846;43.732;10.404;2024-02-04T01:47:15;10.30;99.90
85456;DHT22;75846;43.732;10.404;2024-02-04T01:49:43;10.40;99.90
85456;DHT22;75846;43.732;10.404;2024-02-04T01:52:11;10.40;99.90
85456;DHT22;75846;43.732;10.404;2024-02-04T01:54:42;10.40;99.90
85456;DHT22;75846;43.732;10.404;2024-02-04T01:57:10;10.40;99.90
85456;DHT22;75846;43.732;10.404;2024-02-04T01:59:39;10.30;99.90
85456;DHT22;75846;43.732;10.404;2024-02-04T02:02:06;10.30;99.90
85456;DHT22;75846;43.732;10.404;2024-02-04T02:04:33;10.30;99.90
85456;DHT22;75846;43.732;10.404;2024-02-04T02:07:01;10.30;99.90
85456;DHT22;75846;43.732;10.404;2024-02-04T02:09:29;10.30;99.90
85456;DHT22;75846;43.732;10.404;2024-02-04T02:12:07;10.30;99.90
85456;DHT22;75846;43.732;10.404;2024-02-04T02:14:37;10.30;99.90
85456;DHT22;75846;43.732;10.404;2024-02-04T02:17:09;10.30;99.90
85456;DHT22;75846;43.732;10.404;2024-02-04T02:19:47;10.40;99.90
85456;DHT22;75846;43.732;10.404;2024-02-04T02:22:25;10.30;99.90
85456;DHT22;75846;43.732;10.404;2024-02-04T02:24:56;10.30;99.90
85456;DHT22;75846;43.732;10.404;2024-02-04T02:27:25;10.30;99.90
85456;DHT22;75846;43.732;10.404;2024-02-04T02:29:52;10.30;99.90
85456;DHT22;75846;43.732;10.404;2024-02-04T02:32:19;10.30;99.90
85456;DHT22;75846;43.732;10.404;2024-02-04T02:34:47;10.30;99.90
85456;DHT22;75846;43.732;10.404;2024-02-04T02:37:24;10.40;99.90
85456;DHT22;75846;43.732;10.404;2024-02-04T02:39:59;10.30;99.90
85456;DHT22;75846;43.732;10.404;2024-02-04T02:42:29;10.30;99.90
85456;DHT22;75846;43.732;10.404;2024-02-04T02:44:57;10.30;99.90
85456;DHT22;75846;43.732;10.404;2024-02-04T02:47:25;10.30;99.90
85456;DHT22;75846;43.732;10.404;2024-02-04T02:49:54;10.30;99.90
85456;DHT22;75846;43.732;10.404;2024-02-04T02:52:22;10.30;99.90
85456;DHT22;75846;43.732;10.404;2024-02-04T02:54:49;10.30;99.90
85456;DHT22;75846;43.732;10.404;2024-02-04T02:57:18;10.30;99.90
85456;DHT22;75846;43.732;10.404;2024-02-04T02:59:45;10.30;99.90
85456;DHT22;75846;43.732;10.404;2024-02-04T03:02:13;10.30;99.90
85456;DHT22;75846;43.732;10.404;2024-02-04T03:04:40;10.30;99.90
85456;DHT22;75846;43.732;10.404;2024-02-04T03:07:07;10.40;99.90
85456;DHT22;75846;43.732;10.404;2024-02-04T03:09:35;10.40;99.90
85456;DHT22;75846;43.732;10.404;2024-02-04T03:12:02;10.40;99.90
85456;DHT22;75846;43.732;10.404;2024-02-04T03:14:31;10.40;99.90
85456;DHT22;75846;43.732;10.404;2024-02-04T03:16:58;10.40;99.90
85456;DHT22;75846;43.732;10.404;2024-02-04T03:19:26;10.30;99.90
85456;DHT22;75846;43.732;10.404;2024-02-04T03:21:53;10.40;99.90
85456;DHT22;75846;43.732;10.404;2024-02-04T03:24:20;10.40;99.90
85456;DHT22;75846;43.732;10.404;2024-02-04T03:26:48;10.40;99.90
85456;DHT22;75846;43.732;10.404;2024-02-04T03:29:15;10.30;99.90
85456;DHT22;75846;43.732;10.404;2024-02-04T03:31:44;10.30;99.90
85456;DHT22;75846;43.732;10.404;2024-02-04T03:34:11;10.30;99.90
85456;DHT22;75846;43.732;10.404;2024-02-04T03:36:39;10.30;99.90
85456;DHT22;75846;43.732;10.404;2024-02-04T03:39:06;10.20;99.90
85456;DHT22;75846;43.732;10.404;2024-02-04T03:41:33;10.10;99.90
85456;DHT22;75846;43.732;10.404;2024-02-04T03:44:01;10.10;99.90
85456;DHT22;75846;43.732;10.404;2024-02-04T03:46:28;10.10;99.90
85456;DHT22;75846;43.732;10.404;2024-02-04T03:48:57;10.00;99.90
85456;DHT22;75846;43.732;10.404;2024-02-04T03:51:24;9.90;99.90
85456;DHT22;75846;43.732;10.404;2024-02-04T03:53:51;9.90;99.90
85456;DHT22;75846;43.732;10.404;2024-02-04T03:56:19;10.00;99.90
85456;DHT22;75846;43.732;10.404;2024-02-04T03:58:46;10.00;99.90
85456;DHT22;75846;43.732;10.404;2024-02-04T04:01:13;10.00;99.90
85456;DHT22;75846;43.732;10.404;2024-02-04T04:03:41;10.00;99.90
85456;DHT22;75846;43.732;10.404;2024-02-04T04:06:10;10.00;99.90
85456;DHT22;75846;43.732;10.404;2024-02-04T04:08:37;10.10;99.90
85456;DHT22;75846;43.732;10.404;2024-02-04T04:11:06;10.10;99.90
85456;DHT22;75846;43.732;10.404;2024-02-04T04:13:34;10.10;99.90
85456;DHT22;75846;43.732;10.404;2024-02-04T04:16:01;10.00;99.90
85456;DHT22;75846;43.732;10.404;2024-02-04T04:18:29;9.90;99.90
85456;DHT22;75846;43.732;10.404;2024-02-04T04:20:56;9.90;99.90
85456;DHT22;75846;43.732;10.404;2024-02-04T04:23:25;9.90;99.90
85456;DHT22;75846;43.732;10.404;2024-02-04T04:25:52;9.90;99.90
85456;DHT22;75846;43.732;10.404;2024-02-04T04:28:20;9.90;99.90
85456;DHT22;75846;43.732;10.404;2024-02-04T04:30:47;9.80;99.90
85456;DHT22;75846;43.732;10.404;2024-02-04T04:33:14;9.80;99.90
85456;DHT22;75846;43.732;10.404;2024-02-04T04:35:42;9.70;99.90
85456;DHT22;75846;43.732;10.404;2024-02-04T04:38:09;9.70;99.90
85456;DHT22;75846;43.732;10.404;2024-02-04T04:40:38;9.60;99.90
85456;DHT22;75846;43.732;10.404;2024-02-04T04:43:06;9.60;99.90
85456;DHT22;75846;43.732;10.404;2024-02-04T04:45:33;9.70;99.90
85456;DHT22;75846;43.732;10.404;2024-02-04T04:48:01;9.70;99.90
85456;DHT22;75846;43.732;10.404;2024-02-04T04:50:28;9.70;99.90
85456;DHT22;75846;43.732;10.404;2024-02-04T04:52:55;9.70;99.90
85456;DHT22;75846;43.732;10.404;2024-02-04T04:55:22;9.80;99.90
85456;DHT22;75846;43.732;10.404;2024-02-04T04:57:51;9.80;99.90
85456;DHT22;75846;43.732;10.404;2024-02-04T05:00:19;9.80;99.90
85456;DHT22;75846;43.732;10.404;2024-02-04T05:02:46;9.80;99.90
85456;DHT22;75846;43.732;10.404;2024-02-04T05:05:14;9.80;99.90
85456;DHT22;75846;43.732;10.404;2024-02-04T05:07:41;9.80;99.90
85456;DHT22;75846;43.732;10.404;2024-02-04T05:10:09;9.80;99.90
85456;DHT22;75846;43.732;10.404;2024-02-04T05:12:36;9.80;99.90
85456;DHT22;75846;43.732;10.404;2024-02-04T05:15:06;9.80;99.90
85456;DHT22;75846;43.732;10.404;2024-02-04T05:17:34;9.80;99.90
85456;DHT22;75846;43.732;10.404;2024-02-04T05:20:01;9.70;99.90
85456;DHT22;75846;43.732;10.404;2024-02-04T05:22:30;9.80;99.90
85456;DHT22;75846;43.732;10.404;2024-02-04T05:24:57;9.70;99.90
85456;DHT22;75846;43.732;10.404;2024-02-04T05:27:25;9.70;99.90
85456;DHT22;75846;43.732;10.404;2024-02-04T05:29:52;9.80;99.90
85456;DHT22;75846;43.732;10.404;2024-02-04T05:32:21;9.80;99.90
85456;DHT22;75846;43.732;10.404;2024-02-04T05:34:48;9.70;99.90
85456;DHT22;75846;43.732;10.404;2024-02-04T05:37:15;9.70;99.90
85456;DHT22;75846;43.732;10.404;2024-02-04T05:39:43;9.60;99.90
85456;DHT22;75846;43.732;10.404;2024-02-04T05:42:10;9.60;99.90
85456;DHT22;75846;43.732;10.404;2024-02-04T05:44:37;9.60;99.90
85456;DHT22;75846;43.732;10.404;2024-02-04T05:47:05;9.70;99.90
85456;DHT22;75846;43.732;10.404;2024-02-04T05:49:33;9.60;99.90
85456;DHT22;75846;43.732;10.404;2024-02-04T05:52:01;9.60;99.90
85456;DHT22;75846;43.732;10.404;2024-02-04T05:54:28;9.60;99.90
85456;DHT22;75846;43.732;10.404;2024-02-04T05:56:56;9.50;99.90
85456;DHT22;75846;43.732;10.404;2024-02-04T05:59:23;9.50;99.90
85456;DHT22;75846;43.732;10.404;2024-02-04T06:01:50;9.40;99.90
85456;DHT22;75846;43.732;10.404;2024-02-04T06:04:17;9.30;99.90
85456;DHT22;75846;43.732;10.404;2024-02-04T06:06:46;9.30;99.90
85456;DHT22;75846;43.732;10.404;2024-02-04T06:09:14;9.30;99.90
85456;DHT22;75846;43.732;10.404;2024-02-04T06:11:44;9.40;99.90
85456;DHT22;75846;43.732;10.404;2024-02-04T06:14:11;9.50;99.90
85456;DHT22;75846;43.732;10.404;2024-02-04T06:16:39;9.60;99.90
85456;DHT22;75846;43.732;10.404;2024-02-04T06:19:06;9.50;99.90
85456;DHT22;75846;43.732;10.404;2024-02-04T06:21:35;9.40;99.90
85456;DHT22;75846;43.732;10.404;2024-02-04T06:24:04;9.40;99.90
85456;DHT22;75846;43.732;10.404;2024-02-04T06:26:31;9.40;99.90
85456;DHT22;75846;43.732;10.404;2024-02-04T06:28:58;9.40;99.90
85456;DHT22;75846;43.732;10.404;2024-02-04T06:31:25;9.30;99.90
85456;DHT22;75846;43.732;10.404;2024-02-04T06:33:52;9.30;99.90
85456;DHT22;75846;43.732;10.404;2024-02-04T06:36:20;9.30;99.90
85456;DHT22;75846;43.732;10.404;2024-02-04T06:38:47;9.30;99.90
85456;DHT22;75846;43.732;10.404;2024-02-04T06:41:16;9.30;99.90
85456;DHT22;75846;43.732;10.404;2024-02-04T06:43:43;9.30;99.90
85456;DHT22;75846;43.732;10.404;2024-02-04T06:46:12;9.30;99.90
85456;DHT22;75846;43.732;10.404;2024-02-04T06:48:39;9.30;99.90
85456;DHT22;75846;43.732;10.404;2024-02-04T06:51:06;9.30;99.90
85456;DHT22;75846;43.732;10.404;2024-02-04T06:53:34;9.30;99.90
85456;DHT22;75846;43.732;10.404;2024-02-04T06:56:01;9.30;99.90
85456;DHT22;75846;43.732;10.404;2024-02-04T06:58:29;9.40;99.90
85456;DHT22;75846;43.732;10.404;2024-02-04T07:00:57;9.40;99.90
85456;DHT22;75846;43.732;10.404;2024-02-04T07:03:24;9.50;99.90
85456;DHT22;75846;43.732;10.404;2024-02-04T07:05:51;9.50;99.90
85456;DHT22;75846;43.732;10.404;2024-02-04T07:08:19;9.60;99.90
85456;DHT22;75846;43.732;10.404;2024-02-04T07:10:47;9.60;99.90
85456;DHT22;75846;43.732;10.404;2024-02-04T07:13:14;9.70;99.90
85456;DHT22;75846;43.732;10.404;2024-02-04T07:15:43;9.80;99.90
85456;DHT22;75846;43.732;10.404;2024-02-04T07:18:10;9.80;99.90
85456;DHT22;75846;43.732;10.404;2024-02-04T07:20:39;9.80;99.90
85456;DHT22;75846;43.732;10.404;2024-02-04T07:23:07;9.90;99.90
85456;DHT22;75846;43.732;10.404;2024-02-04T07:25:34;9.80;99.90
85456;DHT22;75846;43.732;10.404;2024-02-04T07:28:02;9.90;99.90
85456;DHT22;75846;43.732;10.404;2024-02-04T07:30:30;10.00;99.90
85456;DHT22;75846;43.732;10.404;2024-02-04T07:32:59;10.00;99.90
85456;DHT22;75846;43.732;10.404;2024-02-04T07:35:26;10.10;99.90
85456;DHT22;75846;43.732;10.404;2024-02-04T07:37:53;10.20;99.90
85456;DHT22;75846;43.732;10.404;2024-02-04T07:40:20;10.20;99.90
85456;DHT22;75846;43.732;10.404;2024-02-04T07:42:48;10.10;99.90
85456;DHT22;75846;43.732;10.404;2024-02-04T07:45:15;10.20;99.90
85456;DHT22;75846;43.732;10.404;2024-02-04T07:47:42;10.10;99.90
85456;DHT22;75846;43.732;10.404;2024-02-04T07:50:11;10.00;99.90
85456;DHT22;75846;43.732;10.404;2024-02-04T07:52:39;10.00;99.90
85456;DHT22;75846;43.732;10.404;2024-02-04T07:55:06;10.10;99.90
85456;DHT22;75846;43.732;10.404;2024-02-04T07:57:34;9.90;99.90
85456;DHT22;75846;43.732;10.404;2024-02-04T08:00:01;9.90;99.90
85456;DHT22;75846;43.732;10.404;2024-02-04T08:02:31;10.00;99.90
85456;DHT22;75846;43.732;10.404;2024-02-04T08:04:58;10.20;99.90
85456;DHT22;75846;43.732;10.404;2024-02-04T08:07:27;10.30;99.90
85456;DHT22;75846;43.732;10.404;2024-02-04T08:09:55;10.50;99.90
85456;DHT22;75846;43.732;10.404;2024-02-04T08:12:24;10.30;99.90
85456;DHT22;75846;43.732;10.404;2024-02-04T08:14:51;10.40;99.90
85456;DHT22;75846;43.732;10.404;2024-02-04T08:17:19;10.40;99.90
85456;DHT22;75846;43.732;10.404;2024-02-04T08:19:46;10.20;99.90
85456;DHT22;75846;43.732;10.404;2024-02-04T08:22:13;10.20;99.90
85456;DHT22;75846;43.732;10.404;2024-02-04T08:24:42;10.20;99.90
85456;DHT22;75846;43.732;10.404;2024-02-04T08:27:09;10.30;99.90
85456;DHT22;75846;43.732;10.404;2024-02-04T08:29:36;10.40;99.90
85456;DHT22;75846;43.732;10.404;2024-02-04T08:32:04;10.40;99.90
85456;DHT22;75846;43.732;10.404;2024-02-04T08:34:31;10.50;99.90
85456;DHT22;75846;43.732;10.404;2024-02-04T08:36:59;10.60;99.90
85456;DHT22;75846;43.732;10.404;2024-02-04T08:39:26;10.80;99.90
85456;DHT22;75846;43.732;10.404;2024-02-04T08:41:57;10.90;99.90
85456;DHT22;75846;43.732;10.404;2024-02-04T08:44:24;10.90;99.90
85456;DHT22;75846;43.732;10.404;2024-02-04T08:46:51;11.00;99.90
85456;DHT22;75846;43.732;10.404;2024-02-04T08:49:18;11.20;99.90
85456;DHT22;75846;43.732;10.404;2024-02-04T08:51:46;11.20;99.90
85456;DHT22;75846;43.732;10.404;2024-02-04T08:54:13;11.30;99.90
85456;DHT22;75846;43.732;10.404;2024-02-04T08:56:40;11.40;99.90
85456;DHT22;75846;43.732;10.404;2024-02-04T08:59:09;11.50;99.90
85456;DHT22;75846;43.732;10.404;2024-02-04T09:01:37;11.50;99.90
85456;DHT22;75846;43.732;10.404;2024-02-04T09:04:04;11.40;99.90
85456;DHT22;75846;43.732;10.404;2024-02-04T09:06:31;11.40;99.90
85456;DHT22;75846;43.732;10.404;2024-02-04T09:08:59;11.40;99.90
85456;DHT22;75846;43.732;10.404;2024-02-04T09:11:26;11.40;99.90
85456;DHT22;75846;43.732;10.404;2024-02-04T09:13:54;11.30;99.90
85456;DHT22;75846;43.732;10.404;2024-02-04T09:16:22;11.20;99.90
85456;DHT22;75846;43.732;10.404;2024-02-04T09:18:50;11.00;99.90
85456;DHT22;75846;43.732;10.404;2024-02-04T09:21:17;11.00;99.90
85456;DHT22;75846;43.732;10.404;2024-02-04T09:23:44;11.10;99.90
85456;DHT22;75846;43.732;10.404;2024-02-04T09:26:11;11.20;99.90
85456;DHT22;75846;43.732;10.404;2024-02-04T09:28:39;11.30;99.90
85456;DHT22;75846;43.732;10.404;2024-02-04T09:31:08;11.20;99.90
85456;DHT22;75846;43.732;10.404;2024-02-04T09:33:37;11.20;99.90
85456;DHT22;75846;43.732;10.404;2024-02-04T09:36:06;11.30;99.90
85456;DHT22;75846;43.732;10.404;2024-02-04T09:38:34;11.40;99.90
85456;DHT22;75846;43.732;10.404;2024-02-04T09:41:01;11.40;99.90
85456;DHT22;75846;43.732;10.404;2024-02-04T09:43:31;11.40;99.90
85456;DHT22;75846;43.732;10.404;2024-02-04T09:46:00;11.50;99.90
85456;DHT22;75846;43.732;10.404;2024-02-04T09:48:31;11.50;99.90
85456;DHT22;75846;43.732;10.404;2024-02-04T09:51:00;11.40;99.90
85456;DHT22;75846;43.732;10.404;2024-02-04T09:53:32;11.30;99.90
85456;DHT22;75846;43.732;10.404;2024-02-04T09:56:02;11.10;99.90
85456;DHT22;75846;43.732;10.404;2024-02-04T09:58:29;11.20;99.90
85456;DHT22;75846;43.732;10.404;2024-02-04T10:00:57;11.20;99.90
85456;DHT22;75846;43.732;10.404;2024-02-04T10:03:26;11.30;99.90
85456;DHT22;75846;43.732;10.404;2024-02-04T10:05:53;11.40;99.90
85456;DHT22;75846;43.732;10.404;2024-02-04T10:08:23;11.30;99.90
85456;DHT22;75846;43.732;10.404;2024-02-04T10:10:50;11.50;99.90
85456;DHT22;75846;43.732;10.404;2024-02-04T10:13:18;11.70;99.90
85456;DHT22;75846;43.732;10.404;2024-02-04T10:15:45;12.00;99.90
85456;DHT22;75846;43.732;10.404;2024-02-04T10:18:13;12.20;99.90
85456;DHT22;75846;43.732;10.404;2024-02-04T10:20:40;12.30;99.90
85456;DHT22;75846;43.732;10.404;2024-02-04T10:23:09;12.30;99.90
85456;DHT22;75846;43.732;10.404;2024-02-04T10:25:38;12.40;99.90
85456;DHT22;75846;43.732;10.404;2024-02-04T10:28:06;12.40;99.90
85456;DHT22;75846;43.732;10.404;2024-02-04T10:30:37;12.50;99.90
85456;DHT22;75846;43.732;10.404;2024-02-04T10:33:05;12.60;99.90
85456;DHT22;75846;43.732;10.404;2024-02-04T10:35:32;12.50;99.90
85456;DHT22;75846;43.732;10.404;2024-02-04T10:37:59;12.50;99.90
85456;DHT22;75846;43.732;10.404;2024-02-04T10:40:27;12.50;99.90
85456;DHT22;75846;43.732;10.404;2024-02-04T10:43:00;12.30;99.90
85456;DHT22;75846;43.732;10.404;2024-02-04T10:45:30;12.20;99.90
85456;DHT22;75846;43.732;10.404;2024-02-04T10:48:01;12.20;99.90
85456;DHT22;75846;43.732;10.404;2024-02-04T10:50:30;12.40;99.90
85456;DHT22;75846;43.732;10.404;2024-02-04T10:52:58;12.50;99.90
85456;DHT22;75846;43.732;10.404;2024-02-04T10:55:30;12.60;99.90
85456;DHT22;75846;43.732;10.404;2024-02-04T10:58:00;12.80;99.90
85456;DHT22;75846;43.732;10.404;2024-02-04T11:00:28;12.90;99.90
85456;DHT22;75846;43.732;10.404;2024-02-04T11:02:56;13.00;99.90
85456;DHT22;75846;43.732;10.404;2024-02-04T11:05:25;13.10;99.90
85456;DHT22;75846;43.732;10.404;2024-02-04T11:07:53;13.30;99.90
85456;DHT22;75846;43.732;10.404;2024-02-04T11:10:21;13.60;99.90
85456;DHT22;75846;43.732;10.404;2024-02-04T11:12:49;13.50;99.90
85456;DHT22;75846;43.732;10.404;2024-02-04T11:15:20;13.60;99.90
85456;DHT22;75846;43.732;10.404;2024-02-04T11:18:21;13.80;99.90
85456;DHT22;75846;43.732;10.404;2024-02-04T11:21:10;14.00;99.90
85456;DHT22;75846;43.732;10.404;2024-02-04T11:23:50;13.90;99.90
85456;DHT22;75846;43.732;10.404;2024-02-04T11:26:22;13.90;99.90
85456;DHT22;75846;43.732;10.404;2024-02-04T11:28:51;13.90;99.90
85456;DHT22;75846;43.732;10.404;2024-02-04T11:31:20;13.80;99.90
85456;DHT22;75846;43.732;10.404;2024-02-04T11:33:50;13.90;99.90
85456;DHT22;75846;43.732;10.404;2024-02-04T11:36:18;13.90;99.90
85456;DHT22;75846;43.732;10.404;2024-02-04T11:38:48;14.00;99.90
85456;DHT22;75846;43.732;10.404;2024-02-04T11:41:22;13.80;99.90
85456;DHT22;75846;43.732;10.404;2024-02-04T11:43:52;13.90;99.90
85456;DHT22;75846;43.732;10.404;2024-02-04T11:46:22;14.00;99.90
85456;DHT22;75846;43.732;10.404;2024-02-04T11:48:53;14.10;99.90
85456;DHT22;75846;43.732;10.404;2024-02-04T11:51:22;14.00;99.90
85456;DHT22;75846;43.732;10.404;2024-02-04T11:53:50;13.90;99.90
85456;DHT22;75846;43.732;10.404;2024-02-04T11:56:18;13.90;99.90
85456;DHT22;75846;43.732;10.404;2024-02-04T11:58:46;13.90;99.90
85456;DHT22;75846;43.732;10.404;2024-02-04T12:01:13;14.00;99.90
85456;DHT22;75846;43.732;10.404;2024-02-04T12:03:43;14.00;99.90
85456;DHT22;75846;43.732;10.404;2024-02-04T12:06:10;14.10;99.90
85456;DHT22;75846;43.732;10.404;2024-02-04T12:08:41;14.00;99.90
85456;DHT22;75846;43.732;10.404;2024-02-04T12:11:09;14.10;99.90
85456;DHT22;75846;43.732;10.404;2024-02-04T12:13:36;14.10;99.90
85456;DHT22;75846;43.732;10.404;2024-02-04T12:16:06;14.10;99.90
85456;DHT22;75846;43.732;10.404;2024-02-04T12:18:35;14.20;99.90
85456;DHT22;75846;43.732;10.404;2024-02-04T12:21:04;14.40;99.90
85456;DHT22;75846;43.732;10.404;2024-02-04T12:23:31;14.40;99.90
85456;DHT22;75846;43.732;10.404;2024-02-04T12:25:59;14.40;99.90
85456;DHT22;75846;43.732;10.404;2024-02-04T12:28:26;14.50;99.90
85456;DHT22;75846;43.732;10.404;2024-02-04T12:30:53;14.50;99.90
85456;DHT22;75846;43.732;10.404;2024-02-04T12:33:21;14.60;99.90
85456;DHT22;75846;43.732;10.404;2024-02-04T12:35:52;14.60;99.90
85456;DHT22;75846;43.732;10.404;2024-02-04T12:38:23;14.40;99.90
85456;DHT22;75846;43.732;10.404;2024-02-04T12:40:51;14.60;99.90
85456;DHT22;75846;43.732;10.404;2024-02-04T12:43:18;14.70;99.90
85456;DHT22;75846;43.732;10.404;2024-02-04T12:45:46;14.90;99.90
85456;DHT22;75846;43.732;10.404;2024-02-04T12:48:16;14.90;99.90
85456;DHT22;75846;43.732;10.404;2024-02-04T12:50:46;15.00;99.90
85456;DHT22;75846;43.732;10.404;2024-02-04T12:53:14;14.80;99.90
85456;DHT22;75846;43.732;10.404;2024-02-04T12:55:42;14.80;99.90
85456;DHT22;75846;43.732;10.404;2024-02-04T12:58:11;14.70;99.90
85456;DHT22;75846;43.732;10.404;2024-02-04T13:00:40;14.60;99.90
85456;DHT22;75846;43.732;10.404;2024-02-04T13:03:08;14.50;99.90
85456;DHT22;75846;43.732;10.404;2024-02-04T13:05:37;14.40;99.90
85456;DHT22;75846;43.732;10.404;2024-02-04T13:08:05;14.40;99.90
85456;DHT22;75846;43.732;10.404;2024-02-04T13:10:34;14.40;99.90
85456;DHT22;75846;43.732;10.404;2024-02-04T13:13:04;14.50;99.90
85456;DHT22;75846;43.732;10.404;2024-02-04T13:15:35;14.60;99.90
85456;DHT22;75846;43.732;10.404;2024-02-04T13:18:03;14.80;99.90
85456;DHT22;75846;43.732;10.404;2024-02-04T13:20:30;15.00;99.90
85456;DHT22;75846;43.732;10.404;2024-02-04T13:22:57;15.10;99.90
85456;DHT22;75846;43.732;10.404;2024-02-04T13:25:26;15.10;99.90
85456;DHT22;75846;43.732;10.404;2024-02-04T13:27:53;15.40;99.90
85456;DHT22;75846;43.732;10.404;2024-02-04T13:30:22;15.50;99.90
85456;DHT22;75846;43.732;10.404;2024-02-04T13:32:50;15.90;99.90
85456;DHT22;75846;43.732;10.404;2024-02-04T13:35:17;16.20;99.90
85456;DHT22;75846;43.732;10.404;2024-02-04T13:37:46;16.20;99.90
85456;DHT22;75846;43.732;10.404;2024-02-04T13:40:17;16.20;99.90
85456;DHT22;75846;43.732;10.404;2024-02-04T13:42:44;16.00;99.90
85456;DHT22;75846;43.732;10.404;2024-02-04T13:45:13;15.80;99.90
85456;DHT22;75846;43.732;10.404;2024-02-04T13:47:42;15.80;99.90
85456;DHT22;75846;43.732;10.404;2024-02-04T13:50:10;15.90;99.90
85456;DHT22;75846;43.732;10.404;2024-02-04T13:52:37;15.80;99.90
85456;DHT22;75846;43.732;10.404;2024-02-04T13:55:06;15.70;99.90
85456;DHT22;75846;43.732;10.404;2024-02-04T13:57:34;15.30;99.90
85456;DHT22;75846;43.732;10.404;2024-02-04T14:00:02;15.30;99.90
85456;DHT22;75846;43.732;10.404;2024-02-04T14:02:31;15.20;99.90
85456;DHT22;75846;43.732;10.404;2024-02-04T14:05:00;15.10;99.90
85456;DHT22;75846;43.732;10.404;2024-02-04T14:07:27;15.00;99.90
85456;DHT22;75846;43.732;10.404;2024-02-04T14:09:55;14.90;99.90
85456;DHT22;75846;43.732;10.404;2024-02-04T14:12:22;14.80;99.90
85456;DHT22;75846;43.732;10.404;2024-02-04T14:14:49;14.80;99.90
85456;DHT22;75846;43.732;10.404;2024-02-04T14:17:17;14.80;99.90
85456;DHT22;75846;43.732;10.404;2024-02-04T14:19:44;14.90;99.90
85456;DHT22;75846;43.732;10.404;2024-02-04T14:22:16;14.80;99.90
85456;DHT22;75846;43.732;10.404;2024-02-04T14:24:44;14.80;99.90
85456;DHT22;75846;43.732;10.404;2024-02-04T14:27:12;14.80;99.90
85456;DHT22;75846;43.732;10.404;2024-02-04T14:29:39;14.80;99.90
85456;DHT22;75846;43.732;10.404;2024-02-04T14:32:07;14.80;99.90
85456;DHT22;75846;43.732;10.404;2024-02-04T14:34:35;14.80;99.90
85456;DHT22;75846;43.732;10.404;2024-02-04T14:37:04;14.80;99.90
85456;DHT22;75846;43.732;10.404;2024-02-04T14:39:34;14.90;99.90
85456;DHT22;75846;43.732;10.404;2024-02-04T14:42:01;14.90;99.90
85456;DHT22;75846;43.732;10.404;2024-02-04T14:44:29;14.90;99.90
85456;DHT22;75846;43.732;10.404;2024-02-04T14:46:56;14.90;99.90
85456;DHT22;75846;43.732;10.404;2024-02-04T14:49:24;14.90;99.90
85456;DHT22;75846;43.732;10.404;2024-02-04T14:51:52;14.90;99.90
85456;DHT22;75846;43.732;10.404;2024-02-04T14:54:20;14.80;99.90
85456;DHT22;75846;43.732;10.404;2024-02-04T14:56:48;14.80;99.90
85456;DHT22;75846;43.732;10.404;2024-02-04T14:59:17;14.80;99.90
85456;DHT22;75846;43.732;10.404;2024-02-04T15:01:44;14.80;99.90
85456;DHT22;75846;43.732;10.404;2024-02-04T15:04:13;14.70;99.90
85456;DHT22;75846;43.732;10.404;2024-02-04T15:06:41;14.70;99.90
85456;DHT22;75846;43.732;10.404;2024-02-04T15:09:08;14.70;99.90
85456;DHT22;75846;43.732;10.404;2024-02-04T15:11:37;14.60;99.90
85456;DHT22;75846;43.732;10.404;2024-02-04T15:14:07;14.60;99.90
85456;DHT22;75846;43.732;10.404;2024-02-04T15:16:35;14.60;99.90
85456;DHT22;75846;43.732;10.404;2024-02-04T15:19:05;14.60;99.90
85456;DHT22;75846;43.732;10.404;2024-02-04T15:21:33;14.70;99.90
85456;DHT22;75846;43.732;10.404;2024-02-04T15:24:01;14.70;99.90
85456;DHT22;75846;43.732;10.404;2024-02-04T15:26:31;14.60;99.90